Zanesville Municipal Airport Zanesville US
ICAO: KZZV
IATA: ZZV
Category: Medium
Scheduled Services: No

Elevation: 900 ft
TransAlt. 18000 ft.

Airport Communications:
ASOS:111.4
INDIANAPOLIS CNTR:124.45
CLEVELAND RDO:122.2
CTAF/UNICOM:123

KZZV Zoom In..

Runways:

(A) RW 04 length 5000 ft width 150 ft
---- / hdg 40

(B) RW 16 length 4999 ft width 150 ft
---- / hdg 158

(C) RW 22 length 5000 ft width 150 ft
ILS 109.95 / hdg 220

(D) RW 34 length 4999 ft width 150 ft
---- / hdg 338

Location; KZZV
Day. 25 / Time. 12.53 Zulu
* Altimeter: 30.10
* Temperature: 06° c. 42.8°f.
* Wind from: 180° Speed 05 kn.
Dewpoint: 03° c.
Visibility: 10 Statute Miles.
Clouds: Overcast 8000 ft.
Conditions: Light Rain.

KZZV 251253Z AUTO 18005KT 10SM -RA OVC080 06/03 A3010 RMK AO2 RAB1155 SLP197 P0004 T00610033

Going to: --> -->


Wind From 180°
Speed 05 kn.

 
 
jpsmedia worldairports.se 2020   terms of use